sensor_id;sensor_type;location;lat;lon;timestamp;pressure;altitude;pressure_sealevel;temperature;humidity
74633;BME280;63139;52.018;8.552;2024-01-30T00:00:58;101737.53;;;3.96;100.00
74633;BME280;63139;52.018;8.552;2024-01-30T00:03:27;101737.63;;;3.95;100.00
74633;BME280;63139;52.018;8.552;2024-01-30T00:05:56;101739.41;;;3.94;100.00
74633;BME280;63139;52.018;8.552;2024-01-30T00:08:26;101736.06;;;3.92;100.00
74633;BME280;63139;52.018;8.552;2024-01-30T00:10:54;101728.28;;;3.90;100.00
74633;BME280;63139;52.018;8.552;2024-01-30T00:13:21;101727.44;;;3.90;100.00
74633;BME280;63139;52.018;8.552;2024-01-30T00:15:51;101725.84;;;3.87;100.00
74633;BME280;63139;52.018;8.552;2024-01-30T00:18:20;101726.88;;;3.85;100.00
74633;BME280;63139;52.018;8.552;2024-01-30T00:20:48;101721.75;;;3.83;100.00
74633;BME280;63139;52.018;8.552;2024-01-30T00:23:16;101722.75;;;3.81;100.00
74633;BME280;63139;52.018;8.552;2024-01-30T00:25:44;101731.47;;;3.81;100.00
74633;BME280;63139;52.018;8.552;2024-01-30T00:28:12;101722.00;;;3.79;100.00
74633;BME280;63139;52.018;8.552;2024-01-30T00:30:40;101723.06;;;3.76;100.00
74633;BME280;63139;52.018;8.552;2024-01-30T00:33:08;101718.84;;;3.74;100.00
74633;BME280;63139;52.018;8.552;2024-01-30T00:35:38;101720.59;;;3.73;100.00
74633;BME280;63139;52.018;8.552;2024-01-30T00:38:06;101722.38;;;3.73;100.00
74633;BME280;63139;52.018;8.552;2024-01-30T00:40:34;101729.31;;;3.74;100.00
74633;BME280;63139;52.018;8.552;2024-01-30T00:43:02;101721.38;;;3.75;100.00
74633;BME280;63139;52.018;8.552;2024-01-30T00:45:30;101713.69;;;3.72;100.00
74633;BME280;63139;52.018;8.552;2024-01-30T00:47:58;101723.97;;;3.75;100.00
74633;BME280;63139;52.018;8.552;2024-01-30T00:50:25;101734.47;;;3.75;100.00
74633;BME280;63139;52.018;8.552;2024-01-30T00:52:55;101723.13;;;3.75;100.00
74633;BME280;63139;52.018;8.552;2024-01-30T00:55:22;101731.00;;;3.75;100.00
74633;BME280;63139;52.018;8.552;2024-01-30T00:57:50;101723.97;;;3.75;100.00
74633;BME280;63139;52.018;8.552;2024-01-30T01:00:19;101729.22;;;3.75;100.00
74633;BME280;63139;52.018;8.552;2024-01-30T01:02:47;101729.97;;;3.77;100.00
74633;BME280;63139;52.018;8.552;2024-01-30T01:05:15;101720.53;;;3.75;100.00
74633;BME280;63139;52.018;8.552;2024-01-30T01:07:44;101730.16;;;3.74;100.00
74633;BME280;63139;52.018;8.552;2024-01-30T01:10:16;101728.38;;;3.75;100.00
74633;BME280;63139;52.018;8.552;2024-01-30T01:12:45;101727.63;;;3.73;100.00
74633;BME280;63139;52.018;8.552;2024-01-30T01:15:13;101726.88;;;3.71;100.00
74633;BME280;63139;52.018;8.552;2024-01-30T01:17:41;101727.81;;;3.70;100.00
74633;BME280;63139;52.018;8.552;2024-01-30T01:20:11;101731.47;;;3.67;100.00
74633;BME280;63139;52.018;8.552;2024-01-30T01:22:39;101728.16;;;3.64;100.00
74633;BME280;63139;52.018;8.552;2024-01-30T01:25:07;101724.81;;;3.62;100.00
74633;BME280;63139;52.018;8.552;2024-01-30T01:27:36;101717.97;;;3.59;100.00
74633;BME280;63139;52.018;8.552;2024-01-30T01:30:09;101718.06;;;3.58;100.00
74633;BME280;63139;52.018;8.552;2024-01-30T01:32:45;101712.19;;;3.54;100.00
74633;BME280;63139;52.018;8.552;2024-01-30T01:35:17;101719.22;;;3.54;100.00
74633;BME280;63139;52.018;8.552;2024-01-30T01:37:45;101721.06;;;3.51;100.00
74633;BME280;63139;52.018;8.552;2024-01-30T01:40:13;101710.75;;;3.48;100.00
74633;BME280;63139;52.018;8.552;2024-01-30T01:42:42;101714.44;;;3.46;100.00
74633;BME280;63139;52.018;8.552;2024-01-30T01:45:10;101710.41;;;3.40;100.00
74633;BME280;63139;52.018;8.552;2024-01-30T01:47:38;101711.34;;;3.39;100.00
74633;BME280;63139;52.018;8.552;2024-01-30T01:50:07;101704.59;;;3.35;100.00
74633;BME280;63139;52.018;8.552;2024-01-30T01:52:36;101703.84;;;3.33;100.00
74633;BME280;63139;52.018;8.552;2024-01-30T01:55:04;101701.31;;;3.32;100.00
74633;BME280;63139;52.018;8.552;2024-01-30T01:57:37;101694.41;;;3.31;100.00
74633;BME280;63139;52.018;8.552;2024-01-30T02:00:08;101692.81;;;3.28;100.00
74633;BME280;63139;52.018;8.552;2024-01-30T02:02:39;101696.47;;;3.26;100.00
74633;BME280;63139;52.018;8.552;2024-01-30T02:05:08;101693.09;;;3.24;100.00
74633;BME280;63139;52.018;8.552;2024-01-30T02:07:36;101693.94;;;3.24;100.00
74633;BME280;63139;52.018;8.552;2024-01-30T02:10:05;101697.56;;;3.22;100.00
74633;BME280;63139;52.018;8.552;2024-01-30T02:12:33;101695.03;;;3.20;100.00
74633;BME280;63139;52.018;8.552;2024-01-30T02:15:00;101700.25;;;3.20;100.00
74633;BME280;63139;52.018;8.552;2024-01-30T02:17:30;101695.03;;;3.20;100.00
74633;BME280;63139;52.018;8.552;2024-01-30T02:19:59;101692.53;;;3.19;100.00
74633;BME280;63139;52.018;8.552;2024-01-30T02:22:28;101686.34;;;3.20;100.00
74633;BME280;63139;52.018;8.552;2024-01-30T02:24:58;101681.22;;;3.18;100.00
74633;BME280;63139;52.018;8.552;2024-01-30T02:27:25;101687.47;;;3.16;100.00
74633;BME280;63139;52.018;8.552;2024-01-30T02:29:53;101679.69;;;3.14;100.00
74633;BME280;63139;52.018;8.552;2024-01-30T02:32:21;101674.56;;;3.12;100.00
74633;BME280;63139;52.018;8.552;2024-01-30T02:34:49;101678.22;;;3.10;100.00
74633;BME280;63139;52.018;8.552;2024-01-30T02:37:17;101677.28;;;3.11;100.00
74633;BME280;63139;52.018;8.552;2024-01-30T02:39:46;101677.28;;;3.11;100.00
74633;BME280;63139;52.018;8.552;2024-01-30T02:42:14;101672.13;;;3.09;100.00
74633;BME280;63139;52.018;8.552;2024-01-30T02:44:42;101669.59;;;3.08;100.00
74633;BME280;63139;52.018;8.552;2024-01-30T02:47:09;101665.22;;;3.08;100.00
74633;BME280;63139;52.018;8.552;2024-01-30T02:49:37;101659.91;;;3.10;100.00
74633;BME280;63139;52.018;8.552;2024-01-30T02:52:05;101651.94;;;3.11;100.00
74633;BME280;63139;52.018;8.552;2024-01-30T02:54:33;101659.69;;;3.13;100.00
74633;BME280;63139;52.018;8.552;2024-01-30T02:57:02;101657.75;;;3.17;100.00
74633;BME280;63139;52.018;8.552;2024-01-30T02:59:30;101650.66;;;3.19;100.00
74633;BME280;63139;52.018;8.552;2024-01-30T03:01:59;101652.22;;;3.21;100.00
74633;BME280;63139;52.018;8.552;2024-01-30T03:04:27;101654.59;;;3.26;100.00
74633;BME280;63139;52.018;8.552;2024-01-30T03:06:56;101643.00;;;3.30;100.00
74633;BME280;63139;52.018;8.552;2024-01-30T03:09:24;101647.84;;;3.36;100.00
74633;BME280;63139;52.018;8.552;2024-01-30T03:11:52;101638.06;;;3.39;100.00
74633;BME280;63139;52.018;8.552;2024-01-30T03:14:21;101626.44;;;3.43;100.00
74633;BME280;63139;52.018;8.552;2024-01-30T03:16:50;101633.19;;;3.47;100.00
74633;BME280;63139;52.018;8.552;2024-01-30T03:19:18;101627.84;;;3.49;100.00
74633;BME280;63139;52.018;8.552;2024-01-30T03:21:46;101619.91;;;3.50;100.00
74633;BME280;63139;52.018;8.552;2024-01-30T03:24:14;101623.09;;;3.56;100.00
74633;BME280;63139;52.018;8.552;2024-01-30T03:26:42;101617.88;;;3.56;100.00
74633;BME280;63139;52.018;8.552;2024-01-30T03:29:10;101616.81;;;3.58;100.00
74633;BME280;63139;52.018;8.552;2024-01-30T03:31:39;101619.25;;;3.61;100.00
74633;BME280;63139;52.018;8.552;2024-01-30T03:34:07;101609.50;;;3.63;100.00
74633;BME280;63139;52.018;8.552;2024-01-30T03:36:35;101615.50;;;3.65;100.00
74633;BME280;63139;52.018;8.552;2024-01-30T03:39:03;101609.16;;;3.69;100.00
74633;BME280;63139;52.018;8.552;2024-01-30T03:41:31;101608.00;;;3.73;100.00
74633;BME280;63139;52.018;8.552;2024-01-30T03:43:58;101609.38;;;3.79;100.00
74633;BME280;63139;52.018;8.552;2024-01-30T03:46:26;101604.59;;;3.85;100.00
74633;BME280;63139;52.018;8.552;2024-01-30T03:48:56;101598.06;;;3.93;100.00
74633;BME280;63139;52.018;8.552;2024-01-30T03:51:23;101602.69;;;4.02;100.00
74633;BME280;63139;52.018;8.552;2024-01-30T03:53:51;101602.94;;;4.11;100.00
74633;BME280;63139;52.018;8.552;2024-01-30T03:56:19;101605.69;;;4.22;100.00
74633;BME280;63139;52.018;8.552;2024-01-30T03:58:47;101607.53;;;4.35;100.00
74633;BME280;63139;52.018;8.552;2024-01-30T04:01:15;101598.25;;;4.43;100.00
74633;BME280;63139;52.018;8.552;2024-01-30T04:03:43;101599.19;;;4.55;100.00
74633;BME280;63139;52.018;8.552;2024-01-30T04:06:13;101586.41;;;4.63;100.00
74633;BME280;63139;52.018;8.552;2024-01-30T04:08:41;101590.66;;;4.78;100.00
74633;BME280;63139;52.018;8.552;2024-01-30T04:11:09;101601.13;;;4.91;100.00
74633;BME280;63139;52.018;8.552;2024-01-30T04:13:37;101592.66;;;5.00;100.00
74633;BME280;63139;52.018;8.552;2024-01-30T04:16:06;101579.84;;;5.08;100.00
74633;BME280;63139;52.018;8.552;2024-01-30T04:18:34;101588.88;;;5.17;100.00
74633;BME280;63139;52.018;8.552;2024-01-30T04:21:02;101597.91;;;5.25;100.00
74633;BME280;63139;52.018;8.552;2024-01-30T04:23:31;101593.06;;;5.32;100.00
74633;BME280;63139;52.018;8.552;2024-01-30T04:25:59;101596.94;;;5.39;100.00
74633;BME280;63139;52.018;8.552;2024-01-30T04:28:27;101590.41;;;5.44;100.00
74633;BME280;63139;52.018;8.552;2024-01-30T04:30:55;101598.94;;;5.48;100.00
74633;BME280;63139;52.018;8.552;2024-01-30T04:33:23;101585.56;;;5.51;100.00
74633;BME280;63139;52.018;8.552;2024-01-30T04:35:51;101580.63;;;5.59;100.00
74633;BME280;63139;52.018;8.552;2024-01-30T04:38:19;101580.28;;;5.64;100.00
74633;BME280;63139;52.018;8.552;2024-01-30T04:40:49;101580.72;;;5.70;100.00
74633;BME280;63139;52.018;8.552;2024-01-30T04:43:16;101584.56;;;5.77;100.00
74633;BME280;63139;52.018;8.552;2024-01-30T04:45:46;101588.53;;;5.83;100.00
74633;BME280;63139;52.018;8.552;2024-01-30T04:48:14;101585.59;;;5.88;100.00
74633;BME280;63139;52.018;8.552;2024-01-30T04:50:42;101594.13;;;5.91;100.00
74633;BME280;63139;52.018;8.552;2024-01-30T04:53:10;101590.41;;;5.94;100.00
74633;BME280;63139;52.018;8.552;2024-01-30T04:55:40;101588.53;;;5.96;100.00
74633;BME280;63139;52.018;8.552;2024-01-30T04:58:10;101593.66;;;5.97;100.00
74633;BME280;63139;52.018;8.552;2024-01-30T05:00:38;101588.41;;;5.97;100.00
74633;BME280;63139;52.018;8.552;2024-01-30T05:03:07;101587.56;;;5.97;100.00
74633;BME280;63139;52.018;8.552;2024-01-30T05:05:34;101592.81;;;5.97;100.00
74633;BME280;63139;52.018;8.552;2024-01-30T05:08:03;101591.16;;;5.96;100.00
74633;BME280;63139;52.018;8.552;2024-01-30T05:10:32;101591.03;;;5.97;100.00
74633;BME280;63139;52.018;8.552;2024-01-30T05:13:00;101588.31;;;5.99;100.00
74633;BME280;63139;52.018;8.552;2024-01-30T05:15:30;101584.75;;;6.00;100.00
74633;BME280;63139;52.018;8.552;2024-01-30T05:17:58;101572.31;;;6.02;100.00
74633;BME280;63139;52.018;8.552;2024-01-30T05:20:26;101591.81;;;6.10;100.00
74633;BME280;63139;52.018;8.552;2024-01-30T05:22:55;101588.75;;;6.16;100.00
74633;BME280;63139;52.018;8.552;2024-01-30T05:25:23;101582.31;;;6.20;100.00
74633;BME280;63139;52.018;8.552;2024-01-30T05:27:51;101578.50;;;6.24;100.00
74633;BME280;63139;52.018;8.552;2024-01-30T05:30:19;101585.00;;;6.32;100.00
74633;BME280;63139;52.018;8.552;2024-01-30T05:32:48;101581.91;;;6.38;100.00
74633;BME280;63139;52.018;8.552;2024-01-30T05:35:17;101572.00;;;6.41;100.00
74633;BME280;63139;52.018;8.552;2024-01-30T05:37:48;101573.31;;;6.47;100.00
74633;BME280;63139;52.018;8.552;2024-01-30T05:40:16;101575.84;;;6.48;100.00
74633;BME280;63139;52.018;8.552;2024-01-30T05:42:44;101573.22;;;6.48;100.00
74633;BME280;63139;52.018;8.552;2024-01-30T05:45:13;101566.16;;;6.49;100.00
74633;BME280;63139;52.018;8.552;2024-01-30T05:47:41;101561.03;;;6.47;100.00
74633;BME280;63139;52.018;8.552;2024-01-30T05:50:11;101569.03;;;6.46;100.00
74633;BME280;63139;52.018;8.552;2024-01-30T05:52:39;101558.38;;;6.47;100.00
74633;BME280;63139;52.018;8.552;2024-01-30T05:55:08;101556.72;;;6.46;100.00
74633;BME280;63139;52.018;8.552;2024-01-30T05:57:36;101555.88;;;6.46;100.00
74633;BME280;63139;52.018;8.552;2024-01-30T06:00:05;101558.38;;;6.47;100.00
74633;BME280;63139;52.018;8.552;2024-01-30T06:02:34;101553.00;;;6.49;100.00
74633;BME280;63139;52.018;8.552;2024-01-30T06:05:02;101554.69;;;6.50;100.00
74633;BME280;63139;52.018;8.552;2024-01-30T06:07:31;101562.59;;;6.50;100.00
74633;BME280;63139;52.018;8.552;2024-01-30T06:10:03;101560.91;;;6.49;100.00
74633;BME280;63139;52.018;8.552;2024-01-30T06:12:31;101561.97;;;6.46;100.00
74633;BME280;63139;52.018;8.552;2024-01-30T06:14:59;101561.38;;;6.43;100.00
74633;BME280;63139;52.018;8.552;2024-01-30T06:17:26;101564.31;;;6.38;100.00
74633;BME280;63139;52.018;8.552;2024-01-30T06:19:54;101562.91;;;6.34;100.00
74633;BME280;63139;52.018;8.552;2024-01-30T06:22:22;101561.44;;;6.30;100.00
74633;BME280;63139;52.018;8.552;2024-01-30T06:24:52;101556.41;;;6.27;100.00
74633;BME280;63139;52.018;8.552;2024-01-30T06:27:20;101556.63;;;6.24;100.00
74633;BME280;63139;52.018;8.552;2024-01-30T06:29:48;101554.94;;;6.23;100.00
74633;BME280;63139;52.018;8.552;2024-01-30T06:32:16;101550.66;;;6.22;100.00
74633;BME280;63139;52.018;8.552;2024-01-30T06:34:44;101550.78;;;6.20;100.00
74633;BME280;63139;52.018;8.552;2024-01-30T06:37:12;101553.50;;;6.19;100.00
74633;BME280;63139;52.018;8.552;2024-01-30T06:39:40;101554.34;;;6.19;100.00
74633;BME280;63139;52.018;8.552;2024-01-30T06:42:09;101550.03;;;6.18;100.00
74633;BME280;63139;52.018;8.552;2024-01-30T06:44:38;101547.53;;;6.17;100.00
74633;BME280;63139;52.018;8.552;2024-01-30T06:47:06;101551.72;;;6.19;100.00
74633;BME280;63139;52.018;8.552;2024-01-30T06:49:34;101553.50;;;6.19;100.00
74633;BME280;63139;52.018;8.552;2024-01-30T06:52:05;101562.34;;;6.18;100.00
74633;BME280;63139;52.018;8.552;2024-01-30T06:54:34;101558.13;;;6.15;100.00
74633;BME280;63139;52.018;8.552;2024-01-30T06:57:03;101560.91;;;6.14;100.00
74633;BME280;63139;52.018;8.552;2024-01-30T06:59:34;101570.34;;;6.16;100.00
74633;BME280;63139;52.018;8.552;2024-01-30T07:02:03;101564.03;;;6.19;100.00
74633;BME280;63139;52.018;8.552;2024-01-30T07:04:31;101559.38;;;6.22;100.00
74633;BME280;63139;52.018;8.552;2024-01-30T07:06:59;101550.31;;;6.27;100.00
74633;BME280;63139;52.018;8.552;2024-01-30T07:09:27;101553.22;;;6.35;100.00
74633;BME280;63139;52.018;8.552;2024-01-30T07:11:56;101553.69;;;6.40;100.00
74633;BME280;63139;52.018;8.552;2024-01-30T07:14:25;101549.66;;;6.47;100.00
74633;BME280;63139;52.018;8.552;2024-01-30T07:16:54;101561.41;;;6.54;100.00
74633;BME280;63139;52.018;8.552;2024-01-30T07:19:22;101556.66;;;6.59;100.00
74633;BME280;63139;52.018;8.552;2024-01-30T07:21:50;101556.41;;;6.62;100.00
74633;BME280;63139;52.018;8.552;2024-01-30T07:24:18;101563.22;;;6.65;100.00
74633;BME280;63139;52.018;8.552;2024-01-30T07:26:45;101566.44;;;6.68;100.00
74633;BME280;63139;52.018;8.552;2024-01-30T07:29:13;101569.81;;;6.70;100.00
74633;BME280;63139;52.018;8.552;2024-01-30T07:31:42;101559.41;;;6.69;100.00
74633;BME280;63139;52.018;8.552;2024-01-30T07:34:11;101564.19;;;6.75;100.00
74633;BME280;63139;52.018;8.552;2024-01-30T07:36:39;101560.50;;;6.77;100.00
74633;BME280;63139;52.018;8.552;2024-01-30T07:39:07;101561.22;;;6.79;100.00
74633;BME280;63139;52.018;8.552;2024-01-30T07:41:37;101569.84;;;6.81;100.00
74633;BME280;63139;52.018;8.552;2024-01-30T07:44:05;101567.91;;;6.83;100.00
74633;BME280;63139;52.018;8.552;2024-01-30T07:46:33;101570.31;;;6.86;100.00
74633;BME280;63139;52.018;8.552;2024-01-30T07:49:01;101564.00;;;6.89;100.00
74633;BME280;63139;52.018;8.552;2024-01-30T07:51:31;101567.22;;;6.92;100.00
74633;BME280;63139;52.018;8.552;2024-01-30T07:53:59;101559.94;;;6.96;100.00
74633;BME280;63139;52.018;8.552;2024-01-30T07:56:27;101561.16;;;7.03;100.00
74633;BME280;63139;52.018;8.552;2024-01-30T07:58:55;101565.69;;;7.12;100.00
74633;BME280;63139;52.018;8.552;2024-01-30T08:01:23;101557.91;;;7.22;100.00
74633;BME280;63139;52.018;8.552;2024-01-30T08:03:51;101563.41;;;7.30;100.00
74633;BME280;63139;52.018;8.552;2024-01-30T08:06:20;101566.28;;;7.38;100.00
74633;BME280;63139;52.018;8.552;2024-01-30T08:08:50;101564.13;;;7.43;100.00
74633;BME280;63139;52.018;8.552;2024-01-30T08:11:20;101561.00;;;7.49;100.00
74633;BME280;63139;52.018;8.552;2024-01-30T08:13:52;101557.63;;;7.58;100.00
74633;BME280;63139;52.018;8.552;2024-01-30T08:16:20;101553.56;;;7.65;100.00
74633;BME280;63139;52.018;8.552;2024-01-30T08:18:48;101546.13;;;7.70;100.00
74633;BME280;63139;52.018;8.552;2024-01-30T08:21:15;101536.63;;;7.79;100.00
74633;BME280;63139;52.018;8.552;2024-01-30T08:23:43;101551.59;;;7.90;100.00
74633;BME280;63139;52.018;8.552;2024-01-30T08:26:13;101542.94;;;7.99;100.00
74633;BME280;63139;52.018;8.552;2024-01-30T08:28:42;101540.13;;;8.11;100.00
74633;BME280;63139;52.018;8.552;2024-01-30T08:31:10;101544.53;;;8.22;100.00
74633;BME280;63139;52.018;8.552;2024-01-30T08:33:39;101543.66;;;8.33;100.00
74633;BME280;63139;52.018;8.552;2024-01-30T08:36:09;101547.22;;;8.43;100.00
74633;BME280;63139;52.018;8.552;2024-01-30T08:38:37;101556.19;;;8.51;100.00
74633;BME280;63139;52.018;8.552;2024-01-30T08:41:07;101560.81;;;8.59;100.00
74633;BME280;63139;52.018;8.552;2024-01-30T08:43:37;101563.63;;;8.67;100.00
74633;BME280;63139;52.018;8.552;2024-01-30T08:46:05;101568.25;;;8.75;100.00
74633;BME280;63139;52.018;8.552;2024-01-30T08:48:36;101571.09;;;8.83;100.00
74633;BME280;63139;52.018;8.552;2024-01-30T08:51:04;101570.19;;;8.93;100.00
74633;BME280;63139;52.018;8.552;2024-01-30T08:53:35;101569.66;;;9.00;100.00
74633;BME280;63139;52.018;8.552;2024-01-30T08:56:03;101564.16;;;9.12;100.00
74633;BME280;63139;52.018;8.552;2024-01-30T08:58:31;101566.00;;;9.21;100.00
74633;BME280;63139;52.018;8.552;2024-01-30T09:01:01;101575.66;;;9.32;100.00
74633;BME280;63139;52.018;8.552;2024-01-30T09:03:30;101563.91;;;9.46;100.00
74633;BME280;63139;52.018;8.552;2024-01-30T09:05:58;101558.50;;;9.57;100.00
74633;BME280;63139;52.018;8.552;2024-01-30T09:08:26;101558.25;;;9.69;100.00
74633;BME280;63139;52.018;8.552;2024-01-30T09:10:54;101564.41;;;9.80;100.00
74633;BME280;63139;52.018;8.552;2024-01-30T09:13:22;101555.38;;;9.92;100.00
74633;BME280;63139;52.018;8.552;2024-01-30T09:15:50;101550.78;;;10.03;100.00
74633;BME280;63139;52.018;8.552;2024-01-30T09:18:20;101557.59;;;10.16;100.00
74633;BME280;63139;52.018;8.552;2024-01-30T09:20:49;101561.72;;;10.29;100.00
74633;BME280;63139;52.018;8.552;2024-01-30T09:23:17;101566.41;;;10.45;100.00
74633;BME280;63139;52.018;8.552;2024-01-30T09:25:46;101556.41;;;10.58;100.00
74633;BME280;63139;52.018;8.552;2024-01-30T09:28:14;101561.94;;;10.74;100.00
74633;BME280;63139;52.018;8.552;2024-01-30T09:30:43;101561.50;;;10.88;100.00
74633;BME280;63139;52.018;8.552;2024-01-30T09:33:11;101558.53;;;11.01;100.00
74633;BME280;63139;52.018;8.552;2024-01-30T09:35:41;101560.00;;;11.13;100.00
74633;BME280;63139;52.018;8.552;2024-01-30T09:38:08;101559.97;;;11.23;100.00
74633;BME280;63139;52.018;8.552;2024-01-30T09:40:37;101554.47;;;11.34;100.00
74633;BME280;63139;52.018;8.552;2024-01-30T09:43:05;101562.53;;;11.42;100.00
74633;BME280;63139;52.018;8.552;2024-01-30T09:45:33;101555.97;;;11.46;100.00
74633;BME280;63139;52.018;8.552;2024-01-30T09:48:03;101555.94;;;11.56;100.00
74633;BME280;63139;52.018;8.552;2024-01-30T09:50:31;101557.00;;;11.63;100.00
74633;BME280;63139;52.018;8.552;2024-01-30T09:53:01;101549.28;;;11.70;100.00
74633;BME280;63139;52.018;8.552;2024-01-30T09:55:29;101548.97;;;11.73;100.00
74633;BME280;63139;52.018;8.552;2024-01-30T09:57:58;101552.22;;;11.76;100.00
74633;BME280;63139;52.018;8.552;2024-01-30T10:00:26;101551.59;;;11.82;100.00
74633;BME280;63139;52.018;8.552;2024-01-30T10:02:54;101549.34;;;11.87;100.00
74633;BME280;63139;52.018;8.552;2024-01-30T10:05:26;101551.84;;;11.89;100.00
74633;BME280;63139;52.018;8.552;2024-01-30T10:07:55;101554.03;;;11.93;100.00
74633;BME280;63139;52.018;8.552;2024-01-30T10:10:24;101552.75;;;11.97;100.00
74633;BME280;63139;52.018;8.552;2024-01-30T10:12:52;101554.13;;;12.01;100.00
74633;BME280;63139;52.018;8.552;2024-01-30T10:15:21;101550.88;;;12.08;100.00
74633;BME280;63139;52.018;8.552;2024-01-30T10:17:49;101544.81;;;12.15;100.00
74633;BME280;63139;52.018;8.552;2024-01-30T10:20:17;101549.34;;;12.23;100.00
74633;BME280;63139;52.018;8.552;2024-01-30T10:22:46;101536.91;;;12.23;100.00
74633;BME280;63139;52.018;8.552;2024-01-30T10:25:14;101555.75;;;12.30;100.00
74633;BME280;63139;52.018;8.552;2024-01-30T10:27:44;101553.31;;;12.36;100.00
74633;BME280;63139;52.018;8.552;2024-01-30T10:30:12;101545.00;;;12.39;100.00
74633;BME280;63139;52.018;8.552;2024-01-30T10:32:41;101551.84;;;12.42;100.00
74633;BME280;63139;52.018;8.552;2024-01-30T10:35:09;101553.81;;;12.40;100.00
74633;BME280;63139;52.018;8.552;2024-01-30T10:37:38;101543.19;;;12.40;100.00
74633;BME280;63139;52.018;8.552;2024-01-30T10:40:08;101544.88;;;12.41;100.00
74633;BME280;63139;52.018;8.552;2024-01-30T10:42:37;101544.56;;;12.44;100.00
74633;BME280;63139;52.018;8.552;2024-01-30T10:45:09;101542.91;;;12.43;100.00
74633;BME280;63139;52.018;8.552;2024-01-30T10:47:40;101533.75;;;12.45;100.00
74633;BME280;63139;52.018;8.552;2024-01-30T10:50:09;101535.44;;;12.47;100.00
74633;BME280;63139;52.018;8.552;2024-01-30T10:52:37;101544.09;;;12.49;100.00
74633;BME280;63139;52.018;8.552;2024-01-30T10:55:07;101529.81;;;12.50;100.00
74633;BME280;63139;52.018;8.552;2024-01-30T10:57:35;101523.06;;;12.55;100.00
74633;BME280;63139;52.018;8.552;2024-01-30T11:00:05;101522.44;;;12.61;100.00
74633;BME280;63139;52.018;8.552;2024-01-30T11:02:40;101510.03;;;12.70;100.00
74633;BME280;63139;52.018;8.552;2024-01-30T11:05:09;101510.44;;;12.83;100.00
74633;BME280;63139;52.018;8.552;2024-01-30T11:07:39;101504.53;;;12.97;100.00
74633;BME280;63139;52.018;8.552;2024-01-30T11:10:09;101504.97;;;13.10;99.75
74633;BME280;63139;52.018;8.552;2024-01-30T11:12:41;101492.09;;;13.24;98.08
74633;BME280;63139;52.018;8.552;2024-01-30T11:15:13;101501.28;;;13.37;95.59
74633;BME280;63139;52.018;8.552;2024-01-30T11:17:50;101497.50;;;13.48;95.10
74633;BME280;63139;52.018;8.552;2024-01-30T11:20:20;101500.97;;;13.56;95.90
74633;BME280;63139;52.018;8.552;2024-01-30T11:22:52;101498.16;;;13.58;94.28
74633;BME280;63139;52.018;8.552;2024-01-30T11:25:21;101499.19;;;13.65;94.39
74633;BME280;63139;52.018;8.552;2024-01-30T11:27:51;101503.50;;;13.66;93.94
74633;BME280;63139;52.018;8.552;2024-01-30T11:30:23;101503.19;;;13.69;93.35
74633;BME280;63139;52.018;8.552;2024-01-30T11:33:00;101504.69;;;13.72;90.98
74633;BME280;63139;52.018;8.552;2024-01-30T11:35:32;101504.53;;;13.73;92.60
74633;BME280;63139;52.018;8.552;2024-01-30T11:38:02;101502.53;;;13.75;91.76
74633;BME280;63139;52.018;8.552;2024-01-30T11:40:31;101498.38;;;13.81;91.88
74633;BME280;63139;52.018;8.552;2024-01-30T11:43:01;101495.91;;;13.87;92.10
74633;BME280;63139;52.018;8.552;2024-01-30T11:45:30;101489.25;;;13.91;89.95
74633;BME280;63139;52.018;8.552;2024-01-30T11:47:59;101494.25;;;13.94;90.04
74633;BME280;63139;52.018;8.552;2024-01-30T11:50:30;101495.59;;;13.98;91.38
74633;BME280;63139;52.018;8.552;2024-01-30T11:52:59;101501.09;;;14.05;90.89
74633;BME280;63139;52.018;8.552;2024-01-30T11:55:28;101496.91;;;14.11;90.58
74633;BME280;63139;52.018;8.552;2024-01-30T11:58:01;101507.94;;;14.08;90.27
74633;BME280;63139;52.018;8.552;2024-01-30T12:00:30;101498.75;;;14.10;88.74
74633;BME280;63139;52.018;8.552;2024-01-30T12:03:03;101507.09;;;14.15;89.46
74633;BME280;63139;52.018;8.552;2024-01-30T12:05:33;101499.91;;;14.16;89.82
74633;BME280;63139;52.018;8.552;2024-01-30T12:08:03;101504.44;;;14.15;89.05
74633;BME280;63139;52.018;8.552;2024-01-30T12:10:31;101506.75;;;14.18;89.76
74633;BME280;63139;52.018;8.552;2024-01-30T12:13:00;101504.25;;;14.17;89.03
74633;BME280;63139;52.018;8.552;2024-01-30T12:15:29;101510.09;;;14.12;89.44
74633;BME280;63139;52.018;8.552;2024-01-30T12:18:05;101511.91;;;14.04;87.28
74633;BME280;63139;52.018;8.552;2024-01-30T12:20:34;101500.25;;;13.96;89.34
74633;BME280;63139;52.018;8.552;2024-01-30T12:23:02;101508.06;;;13.90;89.26
74633;BME280;63139;52.018;8.552;2024-01-30T12:25:30;101512.88;;;13.86;90.16
74633;BME280;63139;52.018;8.552;2024-01-30T12:27:59;101513.38;;;13.82;90.27
74633;BME280;63139;52.018;8.552;2024-01-30T12:30:27;101520.69;;;13.80;90.42
74633;BME280;63139;52.018;8.552;2024-01-30T12:32:55;101525.84;;;13.81;90.63
74633;BME280;63139;52.018;8.552;2024-01-30T12:35:26;101527.50;;;13.82;90.54
74633;BME280;63139;52.018;8.552;2024-01-30T12:37:59;101523.84;;;13.83;90.56
74633;BME280;63139;52.018;8.552;2024-01-30T12:40:27;101529.84;;;13.85;90.36
74633;BME280;63139;52.018;8.552;2024-01-30T12:42:56;101534.38;;;13.93;90.36
74633;BME280;63139;52.018;8.552;2024-01-30T12:45:25;101532.19;;;13.96;90.54
74633;BME280;63139;52.018;8.552;2024-01-30T12:47:53;101530.69;;;14.02;90.55
74633;BME280;63139;52.018;8.552;2024-01-30T12:50:21;101532.53;;;14.02;90.65
74633;BME280;63139;52.018;8.552;2024-01-30T12:52:51;101531.53;;;14.03;90.43
74633;BME280;63139;52.018;8.552;2024-01-30T12:55:19;101541.50;;;14.00;90.50